• Join FlightAware (Why Join?)
  • Login
  • US Flag 
Trick or treat! (Boo!!) 
04:10PM EDT


 

Airport Tracker/Info


-or-


 

Live Flight TrackerFlight Track Log ✈ UAL4336 ✈ 18-Apr-2013 ✈ KIAH - KBTR

Flight Track Log - Related Links

Times and Time Zones

All times are in EDT time to prevent confusion due to time zone crossing. See the UAL4336 flight status page for this flight to view local times or setup timezone preferences in your user account.

Time Position Orientation Groundspeed Altitude Reporting Facility
EDT Latitude Longitude Course Direction KTS MPH feet Rate Location/Type
10:20AM 29.9772 -95.3056 90° East 153 176 800  Level Houston Center
10:22AM 29.9697 -95.2256 96° East 202 232 3,500 2,220 Climbing Houston Center
10:22AM 29.9686 -95.1450 91° East 283 326 5,600 2,460 Climbing Houston Center
10:23AM 29.9733 -95.0383 87° East 309 356 8,400 2,340 Climbing Houston Center
10:24AM 29.9834 -94.8732 90° East  Level FlightAware Approximate
10:24AM 29.9753 -94.9486 89° East 306 352 10,400  Level Houston Center
10:25AM 29.9834 -94.7581 90° East  Level FlightAware Approximate
10:26AM 29.9833 -94.6431 90° East  Level FlightAware Approximate
10:26AM 29.9803 -94.8292 87° East 343 395 11,500  Level Houston Center
10:27AM 29.9839 -94.7078 88° East 373 429 12,900 1,500 Climbing Houston Center
10:28AM 29.9894 -94.5581 88° East 387 445 14,600 1,440 Climbing Houston Center
10:29AM 29.9925 -94.4308 88° East 393 452 15,900 1,140 Climbing Houston Center
10:30AM 29.9967 -94.2983 88° East 408 470 17,000 540 Climbing Houston Center
10:31AM 30.0131 -94.1583 82° East 435 501 17,100  Climbing Houston Center
10:32AM 30.0300 -94.0172 82° East 443 510 17,000 -60 Descending Houston Center
10:33AM 30.0472 -93.8750 82° East 447 514 17,000  Level Houston Center
10:34AM 30.0675 -93.7042 82° East 448 516 17,000  Level Houston Center
10:35AM 30.0853 -93.5619 82° East 448 516 17,000  Level Houston Center
10:36AM 30.1056 -93.4100 81° East 441 507 17,000  Level Houston Center
10:37AM 30.1219 -93.2672 82° East 448 516 17,000  Level Houston Center
10:38AM 30.1394 -93.1264 82° East 447 514 17,000  Level Houston Center
10:39AM 30.1644 -92.9850 78° East 449 517 17,000  Level Houston Center
10:40AM 30.1917 -92.8456 77° East 449 517 17,000  Level Houston Center
10:41AM 30.2244 -92.6764 77° East 451 519 17,000  Level Houston Center
10:42AM 30.2531 -92.5358 77° East 454 522 17,000  Level Houston Center
10:43AM 30.2786 -92.3958 78° East 448 516 17,000  Level Houston Center
10:44AM 30.3056 -92.2553 77° East 450 518 17,000 -300 Level Houston Center
10:45AM 30.3325 -92.1164 77° East 446 513 16,500 -1,260 Descending Houston Center
10:46AM 30.3625 -91.9550 78° East 429 494 14,400 -2,040 Descending Houston Center
10:47AM 30.3875 -91.8275 77° East 412 474 12,400 -1,740 Descending Houston Center
10:48AM 30.4086 -91.7161 78° East 402 463 10,900 -1,380 Descending Houston Center
10:49AM 30.4533 -91.5983 66° East 341 392 9,600 -1,620 Descending Houston Center
10:50AM 30.5236 -91.5753 16° North 305 351 7,600 -1,860 Descending Houston Center
10:52AM 30.5886 -91.5139 39° Northeast 303 349 5,800 -1,800 Descending Houston Center
10:53AM 30.6250 -91.4203 66° East 281 323 4,000 -1,260 Descending Houston Center
10:54AM 30.6444 -91.3369 75° East 266 306 3,200 -780 Descending Houston Center